Time;durP1;ratioP1;P1;durP2;ratioP2;P2;SDS_P1;SDS_P2;PMS_P1;PMS_P2;Temp;Humidity;BMP_temperature;BMP_pressure;BME280_temperature;BME280_humidity;BME280_pressure;Samples;Min_cycle;Max_cycle;Signal;HPM_P1;HPM_P2
2021/10/04 00:02:18;;;;;;;;;;;;;;;-144.99;100.00;52435.88;5010398;28;19977;-66
2021/10/04 00:04:44;;;;;;;;;;;;;;;-144.99;100.00;52419.56;5009221;28;20029;-66
2021/10/04 00:07:10;;;;;;;;;;;;;;;-144.99;100.00;52427.72;5001304;28;19981;-66
2021/10/04 00:09:38;;;;;;;;;;;;;;;-144.99;100.00;52476.63;5010659;28;19978;-67
2021/10/04 00:12:05;;;;;;;;;;;;;;;-144.99;100.00;52446.06;5007476;28;20263;-66
2021/10/04 00:14:31;;;;;;;;;;;;;;;-144.99;100.00;52456.25;4666521;28;9999925;-66
2021/10/04 00:16:58;;;;;;;;;;;;;;;-144.99;100.00;52448.09;5006500;28;20439;-66
2021/10/04 00:19:26;;;;;;;;;;;;;;;-144.99;100.00;52448.09;5007051;28;19985;-66
2021/10/04 00:21:53;;;;;;;;;;;;;;;-144.99;100.00;52431.78;5006510;28;20346;-67
2021/10/04 00:24:19;;;;;;;;;;;;;;;-144.99;100.00;52413.44;5011891;28;20463;-66
2021/10/04 00:26:46;;;;;;;;;;;;;;;-144.99;100.00;52484.78;5012498;28;20229;-66
2021/10/04 00:29:12;;;;;;;;;;;;;;;-144.99;100.00;52437.91;5017303;28;19994;-67
2021/10/04 00:31:39;;;;;;;;;;;;;;;-144.99;100.00;52464.41;5008332;28;19974;-66
2021/10/04 00:34:05;;;;;;;;;;;;;;;-144.99;100.00;52492.94;5009424;28;19985;-66
2021/10/04 00:36:33;;;;;;;;;;;;;;;-144.99;100.00;52501.09;5012530;28;20008;-67
2021/10/04 00:38:59;;;;;;;;;;;;;;;-144.99;100.00;52439.94;5010069;28;19998;-66
2021/10/04 00:41:26;;;;;;;;;;;;;;;-144.99;100.00;52435.88;5002322;28;19980;-66
2021/10/04 00:43:52;;;;;;;;;;;;;;;-144.99;100.00;52407.31;5018860;28;19997;-68
2021/10/04 00:46:18;;;;;;;;;;;;;;;-144.99;100.00;52460.31;5015592;28;19977;-67
2021/10/04 00:48:45;;;;;;;;;;;;;;;-144.99;100.00;52464.41;5023042;23;19992;-62
2021/10/04 00:51:11;;;;;;;;;;;;;;;-144.99;100.00;52464.41;5026200;28;19984;-63
2021/10/04 00:53:39;;;;;;;;;;;;;;;-144.99;100.00;52448.09;5027934;28;19992;-63
2021/10/04 00:56:06;;;;;;;;;;;;;;;-144.99;100.00;52433.81;5027468;28;19981;-63
2021/10/04 00:58:33;;;;;;;;;;;;;;;-144.99;100.00;52450.13;5027033;28;19990;-64
2021/10/04 01:00:59;;;;;;;;;;;;;;;-144.99;100.00;52444.03;5025860;28;19982;-63
2021/10/04 01:03:25;;;;;;;;;;;;;;;-144.99;100.00;52444.03;5024980;28;20001;-63
2021/10/04 01:05:52;;;;;;;;;;;;;;;-144.99;100.00;52427.72;5027804;28;19973;-63
2021/10/04 01:08:18;;;;;;;;;;;;;;;-144.99;100.00;52419.56;5026563;28;20748;-63
2021/10/04 01:10:46;;;;;;;;;;;;;;;-144.99;100.00;52395.09;5025800;28;19981;-64
2021/10/04 01:13:12;;;;;;;;;;;;;;;-144.99;100.00;52509.25;5025430;28;19973;-62
2021/10/04 01:15:39;;;;;;;;;;;;;;;-144.99;100.00;52435.88;5023435;28;19974;-62
2021/10/04 01:18:06;;;;;;;;;;;;;;;-144.99;100.00;52431.78;5024914;28;19994;-62
2021/10/04 01:20:34;;;;;;;;;;;;;;;-144.99;100.00;52448.09;5026522;28;20331;-62
2021/10/04 01:23:00;;;;;;;;;;;;;;;-144.99;100.00;52452.16;5026131;28;20454;-60
2021/10/04 01:25:26;;;;;;;;;;;;;;;-144.99;100.00;52456.25;5025480;28;20471;-61
2021/10/04 01:27:53;;;;;;;;;;;;;;;-144.99;100.00;52439.94;5025171;28;20394;-61
2021/10/04 01:30:22;;;;;;;;;;;;;;;-144.99;100.00;52423.63;5025729;28;19977;-61
2021/10/04 01:32:50;;;;;;;;;;;;;;;-144.99;100.00;52460.31;5025656;28;20756;-64
2021/10/04 01:35:17;;;;;;;;;;;;;;;-144.99;100.00;52460.31;5027402;28;19993;-64
2021/10/04 01:37:45;;;;;;;;;;;;;;;-144.99;100.00;52458.28;5024749;28;20008;-64
2021/10/04 01:40:12;;;;;;;;;;;;;;;-144.99;100.00;52456.25;5026683;28;19963;-65
2021/10/04 01:42:39;;;;;;;;;;;;;;;-144.99;100.00;52450.13;5025240;28;19993;-63
2021/10/04 01:45:06;;;;;;;;;;;;;;;-144.99;100.00;52444.03;5025117;28;20462;-63
2021/10/04 01:47:33;;;;;;;;;;;;;;;-144.99;100.00;52452.16;5028258;28;19996;-63
2021/10/04 01:49:59;;;;;;;;;;;;;;;-144.99;100.00;52444.03;5027488;28;20001;-63
2021/10/04 01:52:26;;;;;;;;;;;;;;;-144.99;100.00;52476.63;5023477;28;19974;-63
2021/10/04 01:54:53;;;;;;;;;;;;;;;-144.99;100.00;52474.59;5023863;28;19974;-63
2021/10/04 01:57:20;;;;;;;;;;;;;;;-144.99;100.00;52476.63;5023516;28;20358;-63
2021/10/04 01:59:46;;;;;;;;;;;;;;;-144.99;100.00;52448.09;5023501;28;19971;-63
2021/10/04 02:02:12;;;;;;;;;;;;;;;-144.99;100.00;52468.47;5024514;28;19956;-63
2021/10/04 02:04:39;;;;;;;;;;;;;;;-144.99;100.00;52448.09;5025133;28;20044;-61
2021/10/04 02:07:05;;;;;;;;;;;;;;;-144.99;100.00;52435.88;5025532;28;19982;-63
2021/10/04 02:09:31;;;;;;;;;;;;;;;-144.99;100.00;52476.63;5025072;28;20427;-64
2021/10/04 02:11:59;;;;;;;;;;;;;;;-144.99;100.00;52460.31;5025532;28;19980;-63
2021/10/04 02:14:26;;;;;;;;;;;;;;;-144.99;100.00;52444.03;5023480;28;20013;-61
2021/10/04 02:16:52;;;;;;;;;;;;;;;-144.99;100.00;52437.91;5025508;28;19977;-63
2021/10/04 02:19:18;;;;;;;;;;;;;;;-144.99;100.00;52452.16;5024565;28;20543;-64
2021/10/04 02:21:45;;;;;;;;;;;;;;;-144.99;100.00;52425.66;5025549;28;19981;-64
2021/10/04 02:24:12;;;;;;;;;;;;;;;-144.99;100.00;52466.44;5026880;28;19994;-62
2021/10/04 02:26:38;;;;;;;;;;;;;;;-144.99;100.00;52492.94;5026159;28;20497;-62
2021/10/04 02:29:06;;;;;;;;;;;;;;;-144.99;100.00;52460.31;5028711;28;20274;-62
2021/10/04 02:31:33;;;;;;;;;;;;;;;-144.99;100.00;52423.63;5028896;28;20461;-62
2021/10/04 02:33:59;;;;;;;;;;;;;;;-144.99;100.00;52431.78;5027295;28;20430;-62
2021/10/04 02:36:25;;;;;;;;;;;;;;;-144.99;100.00;52460.31;5028288;28;19974;-62
2021/10/04 02:38:52;;;;;;;;;;;;;;;-144.99;100.00;52472.56;5028340;28;19989;-62
2021/10/04 02:41:19;;;;;;;;;;;;;;;-144.99;100.00;52452.16;5028765;28;20230;-62
2021/10/04 02:43:45;;;;;;;;;;;;;;;-144.99;100.00;52468.47;5028762;28;20001;-63
2021/10/04 02:46:13;;;;;;;;;;;;;;;-144.99;100.00;52427.72;5027942;28;19982;-60
2021/10/04 02:48:40;;;;;;;;;;;;;;;-144.99;100.00;52460.31;5028162;28;19989;-61
2021/10/04 02:51:06;;;;;;;;;;;;;;;-144.99;100.00;52456.25;5028445;28;19989;-63
2021/10/04 02:53:32;;;;;;;;;;;;;;;-144.99;100.00;52452.16;5028436;28;19974;-63
2021/10/04 02:55:59;;;;;;;;;;;;;;;-144.99;100.00;52439.94;5026549;28;20000;-63
2021/10/04 02:58:25;;;;;;;;;;;;;;;-144.99;100.00;52435.88;5028848;28;19997;-62
2021/10/04 03:00:51;;;;;;;;;;;;;;;-144.99;100.00;52435.88;5028021;28;19977;-63
2021/10/04 03:03:19;;;;;;;;;;;;;;;-144.99;100.00;52458.28;5027514;28;19980;-63
2021/10/04 03:05:45;;;;;;;;;;;;;;;-144.99;100.00;52439.94;5027938;28;19989;-63
2021/10/04 03:08:12;;;;;;;;;;;;;;;-144.99;100.00;52439.94;5026721;28;20458;-64
2021/10/04 03:10:38;;;;;;;;;;;;;;;-144.99;100.00;52444.03;5027994;28;19978;-65
2021/10/04 03:13:05;;;;;;;;;;;;;;;-144.99;100.00;52488.84;5027392;28;20346;-65
2021/10/04 03:15:31;;;;;;;;;;;;;;;-144.99;100.00;52464.41;5027927;28;19974;-66
2021/10/04 03:17:58;;;;;;;;;;;;;;;-144.99;100.00;52468.47;5028037;28;19989;-65
2021/10/04 03:20:26;;;;;;;;;;;;;;;-144.99;100.00;52456.25;5025687;28;19974;-65
2021/10/04 03:22:54;;;;;;;;;;;;;;;-144.99;100.00;52446.06;5027219;28;19974;-66
2021/10/04 03:25:20;;;;;;;;;;;;;;;-144.99;100.00;52476.63;5027145;28;19993;-66
2021/10/04 03:27:47;;;;;;;;;;;;;;;-144.99;100.00;52462.34;5026179;28;19994;-66
2021/10/04 03:30:13;;;;;;;;;;;;;;;-144.99;100.00;52492.94;5027089;28;19981;-65
2021/10/04 03:32:40;;;;;;;;;;;;;;;-144.99;100.00;52439.94;5026247;28;19926;-64
2021/10/04 03:35:08;;;;;;;;;;;;;;;-144.99;100.00;52509.25;5028977;28;19978;-64
2021/10/04 03:37:36;;;;;;;;;;;;;;;-144.99;100.00;52472.56;5027144;28;20084;-63
2021/10/04 03:40:03;;;;;;;;;;;;;;;-144.99;100.00;52464.41;5026220;28;19981;-64
2021/10/04 03:42:30;;;;;;;;;;;;;;;-144.99;100.00;52448.09;5026247;28;19985;-64
2021/10/04 03:44:58;;;;;;;;;;;;;;;-144.99;100.00;52460.31;5027734;28;19989;-65
2021/10/04 03:47:25;;;;;;;;;;;;;;;-144.99;100.00;52464.41;5027035;28;19993;-65
2021/10/04 03:49:51;;;;;;;;;;;;;;;-144.99;100.00;52490.91;5027217;28;19978;-61
2021/10/04 03:52:17;;;;;;;;;;;;;;;-144.99;100.00;52460.31;5024770;28;19977;-60
2021/10/04 03:54:45;;;;;;;;;;;;;;;-144.99;100.00;52448.09;5026891;28;19988;-63
2021/10/04 03:57:12;;;;;;;;;;;;;;;-144.99;100.00;52446.06;5025993;28;20221;-62
2021/10/04 03:59:38;;;;;;;;;;;;;;;-144.99;100.00;52456.25;5028073;28;20204;-62
2021/10/04 04:02:05;;;;;;;;;;;;;;;-144.99;100.00;52480.72;5026571;28;20311;-63
2021/10/04 04:04:31;;;;;;;;;;;;;;;-144.99;100.00;52454.22;5027188;28;19984;-64
2021/10/04 04:06:58;;;;;;;;;;;;;;;-144.99;100.00;52444.03;5027119;28;20518;-62
2021/10/04 04:09:24;;;;;;;;;;;;;;;-144.99;100.00;52456.25;5026096;28;20061;-63
2021/10/04 04:11:52;;;;;;;;;;;;;;;-144.99;100.00;52450.13;5027639;28;19977;-63
2021/10/04 04:14:19;;;;;;;;;;;;;;;-144.99;100.00;52439.94;5026478;28;19973;-65
2021/10/04 04:16:46;;;;;;;;;;;;;;;-144.99;100.00;52431.78;5026877;28;20032;-64
2021/10/04 04:19:12;;;;;;;;;;;;;;;-144.99;100.00;52427.72;5026736;28;20008;-69
2021/10/04 04:21:40;;;;;;;;;;;;;;;-144.99;100.00;52435.88;5026875;28;19981;-62
2021/10/04 04:24:06;;;;;;;;;;;;;;;-144.99;100.00;52476.63;5024546;28;20032;-63
2021/10/04 04:26:33;;;;;;;;;;;;;;;-144.99;100.00;52431.78;5025372;28;19980;-70
2021/10/04 04:29:00;;;;;;;;;;;;;;;-144.99;100.00;52472.56;5026684;28;20100;-70
2021/10/04 04:31:27;;;;;;;;;;;;;;;-144.99;100.00;52474.59;5024256;28;19974;-71
2021/10/04 04:33:53;;;;;;;;;;;;;;;-144.99;100.00;52488.84;5026447;28;19980;-70
2021/10/04 04:36:20;;;;;;;;;;;;;;;-144.99;100.00;52472.56;5026365;28;19981;-69
2021/10/04 04:38:46;;;;;;;;;;;;;;;-144.99;100.00;52460.31;5026763;28;20138;-70
2021/10/04 04:41:12;;;;;;;;;;;;;;;-144.99;100.00;52472.56;5025362;28;19978;-70
2021/10/04 04:43:39;;;;;;;;;;;;;;;-144.99;100.00;52444.03;5026667;28;19977;-70
2021/10/04 04:46:07;;;;;;;;;;;;;;;-144.99;100.00;52456.25;5025811;28;20008;-70
2021/10/04 04:48:33;;;;;;;;;;;;;;;-144.99;100.00;52488.84;5024388;28;20342;-70
2021/10/04 04:50:59;;;;;;;;;;;;;;;-144.99;100.00;52446.06;5025718;28;19986;-69
2021/10/04 04:53:26;;;;;;;;;;;;;;;-144.99;100.00;52431.78;5026416;28;19989;-70
2021/10/04 04:55:52;;;;;;;;;;;;;;;-144.99;100.00;52476.63;5024137;28;19973;-70
2021/10/04 04:58:19;;;;;;;;;;;;;;;-144.99;100.00;52435.88;5024639;28;20496;-70
2021/10/04 05:00:45;;;;;;;;;;;;;;;-144.99;100.00;52444.03;3981814;28;10000747;-69
2021/10/04 05:03:13;;;;;;;;;;;;;;;-144.99;100.00;52435.88;5023213;28;19962;-70
2021/10/04 05:05:39;;;;;;;;;;;;;;;-144.99;100.00;52472.56;5022725;28;20500;-69
2021/10/04 05:08:06;;;;;;;;;;;;;;;-144.99;100.00;52488.84;5023453;28;20004;-70
2021/10/04 05:10:32;;;;;;;;;;;;;;;-144.99;100.00;52480.72;5023743;28;19977;-70
2021/10/04 05:12:58;;;;;;;;;;;;;;;-144.99;100.00;52476.63;5022473;28;19981;-70
2021/10/04 05:15:26;;;;;;;;;;;;;;;-144.99;100.00;52423.63;5023370;28;20350;-72
2021/10/04 05:17:52;;;;;;;;;;;;;;;-144.99;100.00;52435.88;5020854;28;19997;-70
2021/10/04 05:20:20;;;;;;;;;;;;;;;-144.99;100.00;52472.56;5022959;28;19978;-69
2021/10/04 05:22:46;;;;;;;;;;;;;;;-144.99;100.00;52415.47;5023172;28;20329;-70
2021/10/04 05:25:13;;;;;;;;;;;;;;;-144.99;100.00;52427.72;5022597;28;20000;-70
2021/10/04 05:27:39;;;;;;;;;;;;;;;-144.99;100.00;52435.88;5022214;28;20347;-70
2021/10/04 05:30:06;;;;;;;;;;;;;;;-144.99;100.00;52423.63;5021328;28;20021;-71
2021/10/04 05:32:33;;;;;;;;;;;;;;;-144.99;100.00;52423.63;5023278;28;19982;-70
2021/10/04 05:34:59;;;;;;;;;;;;;;;-144.99;100.00;52439.94;5022228;28;20115;-70
2021/10/04 05:37:27;;;;;;;;;;;;;;;-144.99;100.00;52464.41;5022605;28;19997;-70
2021/10/04 05:39:53;;;;;;;;;;;;;;;-144.99;100.00;52448.09;5021387;28;20593;-70
2021/10/04 05:42:20;;;;;;;;;;;;;;;-144.99;100.00;52452.16;5022455;28;19978;-70
2021/10/04 05:44:46;;;;;;;;;;;;;;;-144.99;100.00;52448.09;5022006;28;20377;-69
2021/10/04 05:47:13;;;;;;;;;;;;;;;-144.99;100.00;52476.63;5022257;28;20001;-70
2021/10/04 05:49:39;;;;;;;;;;;;;;;-144.99;100.00;52468.47;5023335;28;19981;-69
2021/10/04 05:52:06;;;;;;;;;;;;;;;-144.99;100.00;52450.13;5019741;28;19981;-70
2021/10/04 05:54:35;;;;;;;;;;;;;;;-144.99;100.00;52472.56;5028545;28;19973;-69
2021/10/04 05:57:01;;;;;;;;;;;;;;;-144.99;100.00;52450.13;5024533;28;20024;-70
2021/10/04 05:59:27;;;;;;;;;;;;;;;-144.99;100.00;52435.88;5028550;28;20450;-70
2021/10/04 06:01:54;;;;;;;;;;;;;;;-144.99;100.00;52472.56;5026954;28;19984;-70
2021/10/04 06:04:20;;;;;;;;;;;;;;;-144.99;100.00;52435.88;5025443;28;19982;-69
2021/10/04 06:06:47;;;;;;;;;;;;;;;-144.99;100.00;52464.41;5025367;28;19994;-71
2021/10/04 06:09:13;;;;;;;;;;;;;;;-144.99;100.00;52452.16;5025781;28;20000;-70
2021/10/04 06:11:41;;;;;;;;;;;;;;;-144.99;100.00;52427.72;5028727;28;19984;-70
2021/10/04 06:14:07;;;;;;;;;;;;;;;-144.99;100.00;52456.25;5023131;28;20084;-71
2021/10/04 06:16:35;;;;;;;;;;;;;;;-144.99;100.00;52452.16;5025725;28;20501;-71
2021/10/04 06:19:01;;;;;;;;;;;;;;;-144.99;100.00;52480.72;5026295;28;20043;-70
2021/10/04 06:21:28;;;;;;;;;;;;;;;-144.99;100.00;52444.03;5025550;28;19973;-71
2021/10/04 06:23:54;;;;;;;;;;;;;;;-144.99;100.00;52492.94;5026161;28;20374;-70
2021/10/04 06:26:21;;;;;;;;;;;;;;;-144.99;100.00;52435.88;5025838;28;20005;-70
2021/10/04 06:28:51;;;;;;;;;;;;;;;-144.99;100.00;52456.25;5026144;28;20000;-70
2021/10/04 06:31:17;;;;;;;;;;;;;;;-144.99;100.00;52427.72;5025103;28;19984;-69
2021/10/04 06:33:44;;;;;;;;;;;;;;;-144.99;100.00;52480.72;5026125;28;19982;-69
2021/10/04 06:36:10;;;;;;;;;;;;;;;-144.99;100.00;52444.03;5028360;28;19989;-70
2021/10/04 06:38:37;;;;;;;;;;;;;;;-144.99;100.00;52423.63;5027333;28;19997;-69
2021/10/04 06:41:03;;;;;;;;;;;;;;;-144.99;100.00;52456.25;5026121;28;20394;-69
2021/10/04 06:43:30;;;;;;;;;;;;;;;-144.99;100.00;52433.81;5025997;28;19984;-69
2021/10/04 06:45:57;;;;;;;;;;;;;;;-144.99;100.00;52452.16;5025478;28;20004;-70
2021/10/04 06:48:24;;;;;;;;;;;;;;;-144.99;100.00;52399.19;5026143;28;20103;-69
2021/10/04 06:50:51;;;;;;;;;;;;;;;-144.99;100.00;52423.63;5026118;28;19981;-70
2021/10/04 06:53:19;;;;;;;;;;;;;;;-144.99;100.00;52454.22;5025346;28;20461;-70
2021/10/04 06:55:45;;;;;;;;;;;;;;;-144.99;99.69;52452.16;5024289;28;19981;-70
2021/10/04 06:58:14;;;;;;;;;;;;;;;-144.99;98.60;52439.94;5026066;28;19998;-70
2021/10/04 07:00:41;;;;;;;;;;;;;;;-144.99;97.54;52444.03;5025534;28;19993;-69
2021/10/04 07:03:08;;;;;;;;;;;;;;;-144.99;96.62;52399.19;5025037;28;19978;-70
2021/10/04 07:05:35;;;;;;;;;;;;;;;-144.99;96.07;52391.03;5029400;28;20295;-70
2021/10/04 07:08:01;;;;;;;;;;;;;;;-144.99;95.35;52427.72;5025500;28;20008;-69
2021/10/04 07:10:28;;;;;;;;;;;;;;;-144.99;94.85;52419.56;5024909;28;20362;-70
2021/10/04 07:12:54;;;;;;;;;;;;;;;-144.99;93.19;52439.94;5025480;28;20980;-69
2021/10/04 07:15:21;;;;;;;;;;;;;;;-144.99;92.73;52427.72;5024325;28;20373;-68
2021/10/04 07:17:47;;;;;;;;;;;;;;;-144.99;91.40;52415.47;5025173;28;20000;-69
2021/10/04 07:20:15;;;;;;;;;;;;;;;-144.99;91.63;52382.88;5025420;28;19993;-65
2021/10/04 07:22:42;;;;;;;;;;;;;;;-144.99;91.48;52464.41;5024232;28;19995;-65
2021/10/04 07:25:09;;;;;;;;;;;;;;;-144.99;91.38;52419.56;5022492;28;19980;-65
2021/10/04 07:27:35;;;;;;;;;;;;;;;-144.99;91.02;52425.66;5023967;28;20011;-64
2021/10/04 07:30:02;;;;;;;;;;;;;;;-144.99;90.90;52466.44;5026559;28;20477;-66
2021/10/04 07:32:28;;;;;;;;;;;;;;;-144.99;90.48;52407.31;5025465;28;20013;-65
2021/10/04 07:34:55;;;;;;;;;;;;;;;-144.99;90.99;52419.56;5026896;28;20065;-65
2021/10/04 07:37:23;;;;;;;;;;;;;;;-144.99;91.10;52391.03;5024677;28;19993;-65
2021/10/04 07:39:49;;;;;;;;;;;;;;;-144.99;91.51;52407.31;5024718;28;19984;-65
2021/10/04 07:42:15;;;;;;;;;;;;;;;-144.99;92.19;52407.31;5023256;28;20249;-65
2021/10/04 07:44:42;;;;;;;;;;;;;;;-144.99;91.78;52399.19;5024637;28;19978;-65
2021/10/04 07:47:10;;;;;;;;;;;;;;;-144.99;91.88;52423.63;5023377;28;19999;-65
2021/10/04 07:49:36;;;;;;;;;;;;;;;-144.99;91.47;52452.16;5024305;28;19978;-65
2021/10/04 07:52:03;;;;;;;;;;;;;;;-144.99;91.73;52437.91;5020575;28;19984;-65
2021/10/04 07:54:31;;;;;;;;;;;;;;;-144.99;91.82;52419.56;5022970;28;19977;-65
2021/10/04 07:56:57;;;;;;;;;;;;;;;-144.99;91.68;52448.09;5023959;28;20382;-64
2021/10/04 07:59:24;;;;;;;;;;;;;;;-144.99;91.75;52397.13;5023574;28;19984;-64
2021/10/04 08:01:50;;;;;;;;;;;;;;;-144.99;91.67;52423.63;5023863;28;19978;-66
2021/10/04 08:04:16;;;;;;;;;;;;;;;-144.99;91.16;52448.09;5024386;28;20581;-64
2021/10/04 08:06:43;;;;;;;;;;;;;;;-144.99;91.33;52397.13;5023991;28;19993;-66
2021/10/04 08:09:09;;;;;;;;;;;;;;;-144.99;90.83;52427.72;5024142;28;19998;-64
2021/10/04 08:11:39;;;;;;;;;;;;;;;-144.99;90.88;52399.19;5023425;28;20079;-63
2021/10/04 08:14:06;;;;;;;;;;;;;;;-144.99;90.80;52407.31;5021329;28;19988;-64
2021/10/04 08:16:32;;;;;;;;;;;;;;;-144.99;91.12;52427.72;5021622;28;20650;-65
2021/10/04 08:18:58;;;;;;;;;;;;;;;-144.99;90.53;52399.19;5023506;28;20507;-65
2021/10/04 08:21:25;;;;;;;;;;;;;;;-144.99;90.38;52423.63;5022127;28;20015;-67
2021/10/04 08:23:52;;;;;;;;;;;;;;;-144.99;90.72;52419.56;5023236;28;19977;-65
2021/10/04 08:26:18;;;;;;;;;;;;;;;-144.99;90.42;52439.94;5022234;28;20004;-67
2021/10/04 08:28:46;;;;;;;;;;;;;;;-144.99;90.18;52393.06;5023582;28;20148;-66
2021/10/04 08:31:18;;;;;;;;;;;;;;;-144.99;90.27;52415.47;5024055;28;20017;-66
2021/10/04 08:33:44;;;;;;;;;;;;;;;-144.99;90.13;52386.94;5022971;28;19973;-66
2021/10/04 08:36:11;;;;;;;;;;;;;;;-144.99;90.02;52431.78;5022571;28;19984;-66
2021/10/04 08:38:38;;;;;;;;;;;;;;;-144.99;90.33;52407.31;5023112;28;20067;-66
2021/10/04 08:41:04;;;;;;;;;;;;;;;-144.99;90.41;52407.31;5022330;28;20275;-67
2021/10/04 08:43:31;;;;;;;;;;;;;;;-144.99;90.58;52401.22;5019612;28;19988;-66
2021/10/04 08:46:00;;;;;;;;;;;;;;;-144.99;90.60;52429.75;5023721;28;20001;-65
2021/10/04 08:48:27;;;;;;;;;;;;;;;-144.99;89.90;52391.03;5022955;28;20080;-65
2021/10/04 08:50:55;;;;;;;;;;;;;;;-144.99;90.19;52407.31;5022143;28;20369;-66
2021/10/04 08:53:21;;;;;;;;;;;;;;;-144.99;90.37;52415.47;5021450;28;20061;-66
2021/10/04 08:55:48;;;;;;;;;;;;;;;-144.99;90.00;52431.78;5022721;28;19974;-65
2021/10/04 08:58:14;;;;;;;;;;;;;;;-144.99;89.71;52431.78;5022998;28;19990;-65
2021/10/04 09:00:40;;;;;;;;;;;;;;;-144.99;89.65;52423.63;5023324;28;20405;-66
2021/10/04 09:03:08;;;;;;;;;;;;;;;-144.99;89.60;52399.19;5021965;28;20478;-66
2021/10/04 09:05:36;;;;;;;;;;;;;;;-144.99;89.09;52435.88;5020398;28;19973;-66
2021/10/04 09:08:07;;;;;;;;;;;;;;;-144.99;88.90;52407.31;5021172;28;19993;-65
2021/10/04 09:10:35;;;;;;;;;;;;;;;-144.99;88.51;52419.56;5024529;28;20084;-66
2021/10/04 09:13:03;;;;;;;;;;;;;;;-144.99;88.76;52417.53;5021877;28;19981;-67
2021/10/04 09:15:34;;;;;;;;;;;;;;;-144.99;88.77;52448.09;5023233;28;19973;-66
2021/10/04 09:18:01;;;;;;;;;;;;;;;-144.99;88.85;52403.25;5022605;28;20036;-66
2021/10/04 09:20:47;;;;;;;;;;;;;;;-144.99;88.51;52450.13;5021460;28;19974;-67
2021/10/04 09:23:27;;;;;;;;;;;;;;;-144.99;88.68;52413.44;5024570;28;19974;-68
2021/10/04 09:25:53;;;;;;;;;;;;;;;-144.99;88.52;52407.31;5024481;28;20238;-65
2021/10/04 09:28:26;;;;;;;;;;;;;;;-144.99;88.46;52386.94;5023857;28;20004;-66
2021/10/04 09:30:54;;;;;;;;;;;;;;;-144.99;88.92;52417.53;5024413;28;19973;-71
2021/10/04 09:33:20;;;;;;;;;;;;;;;-144.99;88.81;52399.19;5024054;28;20119;-71
2021/10/04 09:35:48;;;;;;;;;;;;;;;-144.99;88.63;52397.13;5025522;28;20409;-71
2021/10/04 09:38:17;;;;;;;;;;;;;;;-144.99;88.61;52419.56;5022258;28;19993;-71
2021/10/04 09:40:44;;;;;;;;;;;;;;;-144.99;88.18;52382.88;5020340;28;20112;-71
2021/10/04 09:43:22;;;;;;;;;;;;;;;-144.99;88.36;52433.81;5022472;28;20272;-71
2021/10/04 09:45:57;;;;;;;;;;;;;;;-144.99;88.10;52378.78;5022719;28;20517;-70
2021/10/04 09:48:23;;;;;;;;;;;;;;;-144.99;88.49;52391.03;5023745;28;20095;-70
2021/10/04 09:50:51;;;;;;;;;;;;;;;-144.99;87.65;52423.63;5023108;28;19982;-71
2021/10/04 09:53:18;;;;;;;;;;;;;;;-144.99;86.62;52435.88;5023183;28;19982;-70
2021/10/04 09:55:47;;;;;;;;;;;;;;;-144.99;86.45;52407.31;5024371;28;20431;-71
2021/10/04 09:58:15;;;;;;;;;;;;;;;-144.99;86.45;52393.06;5022241;28;20000;-70
2021/10/04 10:00:47;;;;;;;;;;;;;;;-144.99;85.95;52366.56;5021956;28;19989;-70
2021/10/04 10:03:14;;;;;;;;;;;;;;;-144.99;85.73;52382.88;5022822;28;19985;-71
2021/10/04 10:05:41;;;;;;;;;;;;;;;-144.99;84.95;52431.78;5021722;28;20410;-69
2021/10/04 10:08:09;;;;;;;;;;;;;;;-144.99;85.10;52427.72;5022729;28;20457;-69
2021/10/04 10:10:36;;;;;;;;;;;;;;;-144.99;84.52;52391.03;5022288;28;19978;-69
2021/10/04 10:13:02;;;;;;;;;;;;;;;-144.99;84.33;52386.94;5020169;28;19978;-70
2021/10/04 10:15:30;;;;;;;;;;;;;;;-144.99;83.42;52399.19;5023877;28;19978;-71
2021/10/04 10:18:02;;;;;;;;;;;;;;;-144.99;83.40;52397.13;5022975;28;19997;-69
2021/10/04 10:20:29;;;;;;;;;;;;;;;-144.99;82.76;52444.03;5022197;28;19974;-70
2021/10/04 10:22:55;;;;;;;;;;;;;;;-144.99;83.08;52395.09;5023718;28;20440;-70
2021/10/04 10:25:31;;;;;;;;;;;;;;;-144.99;83.01;52366.56;5022529;28;19974;-70
2021/10/04 10:27:57;;;;;;;;;;;;;;;-144.99;83.31;52407.31;5023037;28;20001;-70
2021/10/04 10:30:24;;;;;;;;;;;;;;;-144.99;83.59;52399.19;5023326;28;19977;-72
2021/10/04 10:32:51;;;;;;;;;;;;;;;-144.99;82.05;52370.63;5024354;28;19978;-70
2021/10/04 10:35:18;;;;;;;;;;;;;;;-144.99;82.02;52374.72;5022671;28;19977;-70
2021/10/04 10:37:46;;;;;;;;;;;;;;;-144.99;82.27;52403.25;5021237;28;20020;-70
2021/10/04 10:40:13;;;;;;;;;;;;;;;-144.99;82.13;52399.19;5021949;28;19978;-70
2021/10/04 10:42:42;;;;;;;;;;;;;;;-144.99;81.86;52407.31;5021190;28;19948;-70
2021/10/04 10:45:18;;;;;;;;;;;;;;;-144.99;82.30;52366.56;5020896;28;20039;-71
2021/10/04 10:47:56;;;;;;;;;;;;;;;-144.99;82.85;52407.31;5025255;28;20135;-70
2021/10/04 10:50:33;;;;;;;;;;;;;;;-144.99;82.64;52407.31;5022648;28;19977;-71
2021/10/04 10:53:04;;;;;;;;;;;;;;;-144.99;83.13;52435.88;5024197;28;20010;-70
2021/10/04 10:55:31;;;;;;;;;;;;;;;-144.99;83.71;52395.09;5025083;28;19989;-70
2021/10/04 10:58:05;;;;;;;;;;;;;;;-144.99;83.34;52395.09;5023313;28;19998;-70
2021/10/04 11:00:33;;;;;;;;;;;;;;;-144.99;83.08;52407.31;5020173;28;20033;-70
2021/10/04 11:03:00;;;;;;;;;;;;;;;-144.99;82.01;52397.13;5026831;28;19985;-70
2021/10/04 11:05:45;;;;;;;;;;;;;;;-144.99;82.65;52399.19;5025242;28;19981;-70
2021/10/04 11:08:12;;;;;;;;;;;;;;;-144.99;82.81;52378.78;5024929;28;20494;-70
2021/10/04 11:11:05;;;;;;;;;;;;;;;-144.99;82.76;52382.88;5028037;28;19978;-71
2021/10/04 11:13:34;;;;;;;;;;;;;;;-144.99;82.65;52409.38;5024684;28;19974;-69
2021/10/04 11:16:20;;;;;;;;;;;;;;;-144.99;82.87;52368.59;5025950;28;20015;-71
2021/10/04 11:18:48;;;;;;;;;;;;;;;-144.99;81.99;52423.63;5022316;28;20013;-71
2021/10/04 11:21:15;;;;;;;;;;;;;;;-144.99;82.22;52382.88;5024839;28;20062;-70
2021/10/04 11:23:42;;;;;;;;;;;;;;;-144.99;81.90;52382.88;5025026;28;19984;-70
2021/10/04 11:26:12;;;;;;;;;;;;;;;-144.99;80.83;52378.78;5024164;28;20049;-69
2021/10/04 11:28:41;;;;;;;;;;;;;;;-144.99;81.29;52427.72;5025022;28;20071;-69
2021/10/04 11:31:09;;;;;;;;;;;;;;;-144.99;81.59;52391.03;5025194;28;19986;-70
2021/10/04 11:33:37;;;;;;;;;;;;;;;-144.99;81.28;52419.56;5026246;28;19978;-70
2021/10/04 11:36:05;;;;;;;;;;;;;;;-144.99;81.88;52399.19;5024707;28;19962;-69
2021/10/04 11:38:35;;;;;;;;;;;;;;;-144.99;81.51;52374.72;5025836;28;19997;-71
2021/10/04 11:41:02;;;;;;;;;;;;;;;-144.99;81.12;52386.94;5025283;28;21326;-71
2021/10/04 11:43:28;;;;;;;;;;;;;;;-144.99;80.67;52407.31;5024756;28;19981;-71
2021/10/04 11:45:56;;;;;;;;;;;;;;;-144.99;80.70;52419.56;5023773;28;20464;-70
2021/10/04 11:48:29;;;;;;;;;;;;;;;-144.99;80.20;52403.25;5023895;28;20454;-70
2021/10/04 11:50:56;;;;;;;;;;;;;;;-144.99;80.24;52362.50;5021326;28;19982;-71
2021/10/04 11:53:23;;;;;;;;;;;;;;;-144.99;79.05;52382.88;5027036;28;20408;-71
2021/10/04 11:55:57;;;;;;;;;;;;;;;-144.99;78.93;52382.88;5025095;28;20078;-70
2021/10/04 11:58:23;;;;;;;;;;;;;;;-144.99;78.49;52329.88;5024147;28;19993;-70
2021/10/04 12:00:49;;;;;;;;;;;;;;;-144.99;75.76;52313.56;5020571;28;20567;-70
2021/10/04 12:03:25;;;;;;;;;;;;;;;-144.99;73.55;52321.72;5024392;28;19963;-69
2021/10/04 12:05:52;;;;;;;;;;;;;;;-144.99;72.86;52368.59;5022730;28;20424;-70
2021/10/04 12:08:19;;;;;;;;;;;;;;;-144.99;74.31;52338.03;5024095;28;20005;-69
2021/10/04 12:10:48;;;;;;;;;;;;;;;-144.99;74.13;52403.25;5025158;28;19988;-70
2021/10/04 12:13:16;;;;;;;;;;;;;;;-144.99;74.53;52350.25;5023689;28;20361;-69
2021/10/04 12:15:42;;;;;;;;;;;;;;;-144.99;74.89;52342.09;5023964;28;19985;-71
2021/10/04 12:18:12;;;;;;;;;;;;;;;-144.99;75.15;52329.88;5023354;28;20008;-70
2021/10/04 12:20:40;;;;;;;;;;;;;;;-144.99;73.33;52342.09;5021890;28;19982;-70
2021/10/04 12:23:14;;;;;;;;;;;;;;;-144.99;70.72;52344.16;5023197;28;20208;-70